sensor_id;sensor_type;location;lat;lon;timestamp;temperature;humidity
4578;DHT22;2301;47.354;8.528;2023-07-31T00:01:16;19.80;76.10
4578;DHT22;2301;47.354;8.528;2023-07-31T00:03:43;19.80;76.20
4578;DHT22;2301;47.354;8.528;2023-07-31T00:06:11;19.80;76.30
4578;DHT22;2301;47.354;8.528;2023-07-31T00:08:38;19.80;75.90
4578;DHT22;2301;47.354;8.528;2023-07-31T00:11:05;19.80;75.90
4578;DHT22;2301;47.354;8.528;2023-07-31T00:13:32;19.80;76.50
4578;DHT22;2301;47.354;8.528;2023-07-31T00:15:59;19.90;76.40
4578;DHT22;2301;47.354;8.528;2023-07-31T00:18:26;19.80;76.00
4578;DHT22;2301;47.354;8.528;2023-07-31T00:20:53;19.80;75.80
4578;DHT22;2301;47.354;8.528;2023-07-31T00:23:21;19.90;76.40
4578;DHT22;2301;47.354;8.528;2023-07-31T00:25:48;19.90;76.70
4578;DHT22;2301;47.354;8.528;2023-07-31T00:28:15;19.80;76.80
4578;DHT22;2301;47.354;8.528;2023-07-31T00:30:41;19.80;76.70
4578;DHT22;2301;47.354;8.528;2023-07-31T00:33:08;19.80;76.70
4578;DHT22;2301;47.354;8.528;2023-07-31T00:35:35;19.90;76.90
4578;DHT22;2301;47.354;8.528;2023-07-31T00:38:02;19.90;77.00
4578;DHT22;2301;47.354;8.528;2023-07-31T00:40:34;19.90;77.10
4578;DHT22;2301;47.354;8.528;2023-07-31T00:43:02;19.90;77.20
4578;DHT22;2301;47.354;8.528;2023-07-31T00:45:30;19.90;77.10
4578;DHT22;2301;47.354;8.528;2023-07-31T00:47:57;19.90;77.00
4578;DHT22;2301;47.354;8.528;2023-07-31T00:50:24;19.90;76.70
4578;DHT22;2301;47.354;8.528;2023-07-31T00:52:52;19.90;77.40
4578;DHT22;2301;47.354;8.528;2023-07-31T00:55:19;19.90;76.70
4578;DHT22;2301;47.354;8.528;2023-07-31T00:57:49;19.90;76.70
4578;DHT22;2301;47.354;8.528;2023-07-31T01:00:18;19.80;76.60
4578;DHT22;2301;47.354;8.528;2023-07-31T01:02:45;19.80;76.80
4578;DHT22;2301;47.354;8.528;2023-07-31T01:05:12;19.80;77.00
4578;DHT22;2301;47.354;8.528;2023-07-31T01:07:50;19.80;77.00
4578;DHT22;2301;47.354;8.528;2023-07-31T01:10:21;19.80;77.30
4578;DHT22;2301;47.354;8.528;2023-07-31T01:12:51;19.80;77.20
4578;DHT22;2301;47.354;8.528;2023-07-31T01:15:18;19.70;77.30
4578;DHT22;2301;47.354;8.528;2023-07-31T01:17:45;19.70;77.60
4578;DHT22;2301;47.354;8.528;2023-07-31T01:20:16;19.70;77.70
4578;DHT22;2301;47.354;8.528;2023-07-31T01:23:01;19.70;78.40
4578;DHT22;2301;47.354;8.528;2023-07-31T01:28:42;19.70;77.90
4578;DHT22;2301;47.354;8.528;2023-07-31T01:31:14;19.70;78.10
4578;DHT22;2301;47.354;8.528;2023-07-31T01:33:43;19.70;78.20
4578;DHT22;2301;47.354;8.528;2023-07-31T01:36:10;19.70;78.20
4578;DHT22;2301;47.354;8.528;2023-07-31T01:38:38;19.70;78.30
4578;DHT22;2301;47.354;8.528;2023-07-31T01:41:05;19.70;78.30
4578;DHT22;2301;47.354;8.528;2023-07-31T01:43:32;19.70;78.10
4578;DHT22;2301;47.354;8.528;2023-07-31T01:46:00;19.70;78.40
4578;DHT22;2301;47.354;8.528;2023-07-31T01:48:27;19.70;78.40
4578;DHT22;2301;47.354;8.528;2023-07-31T01:50:54;19.70;78.10
4578;DHT22;2301;47.354;8.528;2023-07-31T01:53:21;19.70;78.20
4578;DHT22;2301;47.354;8.528;2023-07-31T01:55:48;19.70;77.80
4578;DHT22;2301;47.354;8.528;2023-07-31T01:58:15;19.60;77.40
4578;DHT22;2301;47.354;8.528;2023-07-31T02:00:42;19.70;76.80
4578;DHT22;2301;47.354;8.528;2023-07-31T02:03:10;19.70;76.50
4578;DHT22;2301;47.354;8.528;2023-07-31T02:05:44;19.70;76.90
4578;DHT22;2301;47.354;8.528;2023-07-31T02:08:11;19.70;76.70
4578;DHT22;2301;47.354;8.528;2023-07-31T02:10:37;19.60;76.70
4578;DHT22;2301;47.354;8.528;2023-07-31T02:13:04;19.60;76.80
4578;DHT22;2301;47.354;8.528;2023-07-31T02:15:31;19.60;76.60
4578;DHT22;2301;47.354;8.528;2023-07-31T02:17:58;19.60;77.10
4578;DHT22;2301;47.354;8.528;2023-07-31T02:20:26;19.50;77.40
4578;DHT22;2301;47.354;8.528;2023-07-31T02:22:53;19.50;77.70
4578;DHT22;2301;47.354;8.528;2023-07-31T02:25:20;19.40;77.80
4578;DHT22;2301;47.354;8.528;2023-07-31T02:27:47;19.40;78.10
4578;DHT22;2301;47.354;8.528;2023-07-31T02:30:14;19.40;78.20
4578;DHT22;2301;47.354;8.528;2023-07-31T02:32:41;19.40;78.40
4578;DHT22;2301;47.354;8.528;2023-07-31T02:35:08;19.40;78.50
4578;DHT22;2301;47.354;8.528;2023-07-31T02:37:36;19.30;78.50
4578;DHT22;2301;47.354;8.528;2023-07-31T02:40:05;19.30;78.50
4578;DHT22;2301;47.354;8.528;2023-07-31T02:42:32;19.30;78.60
4578;DHT22;2301;47.354;8.528;2023-07-31T02:44:59;19.30;78.60
4578;DHT22;2301;47.354;8.528;2023-07-31T02:47:26;19.30;78.50
4578;DHT22;2301;47.354;8.528;2023-07-31T02:49:52;19.30;78.40
4578;DHT22;2301;47.354;8.528;2023-07-31T02:52:19;19.20;78.10
4578;DHT22;2301;47.354;8.528;2023-07-31T02:54:48;19.20;78.20
4578;DHT22;2301;47.354;8.528;2023-07-31T02:57:15;19.20;78.30
4578;DHT22;2301;47.354;8.528;2023-07-31T02:59:42;19.20;78.20
4578;DHT22;2301;47.354;8.528;2023-07-31T03:02:09;19.20;78.40
4578;DHT22;2301;47.354;8.528;2023-07-31T03:04:36;19.20;78.40
4578;DHT22;2301;47.354;8.528;2023-07-31T03:07:03;19.20;78.50
4578;DHT22;2301;47.354;8.528;2023-07-31T03:09:30;19.20;78.60
4578;DHT22;2301;47.354;8.528;2023-07-31T03:11:59;19.20;78.40
4578;DHT22;2301;47.354;8.528;2023-07-31T03:14:25;19.20;78.40
4578;DHT22;2301;47.354;8.528;2023-07-31T03:16:53;19.20;79.40
4578;DHT22;2301;47.354;8.528;2023-07-31T03:19:20;19.20;78.50
4578;DHT22;2301;47.354;8.528;2023-07-31T03:21:47;19.20;78.20
4578;DHT22;2301;47.354;8.528;2023-07-31T03:24:16;19.20;78.30
4578;DHT22;2301;47.354;8.528;2023-07-31T03:26:43;19.20;78.30
4578;DHT22;2301;47.354;8.528;2023-07-31T03:29:12;19.10;78.10
4578;DHT22;2301;47.354;8.528;2023-07-31T03:31:39;19.10;78.30
4578;DHT22;2301;47.354;8.528;2023-07-31T03:34:05;19.10;78.40
4578;DHT22;2301;47.354;8.528;2023-07-31T03:36:32;19.10;78.40
4578;DHT22;2301;47.354;8.528;2023-07-31T03:38:59;19.00;78.30
4578;DHT22;2301;47.354;8.528;2023-07-31T03:41:26;19.00;78.60
4578;DHT22;2301;47.354;8.528;2023-07-31T03:43:53;19.10;78.60
4578;DHT22;2301;47.354;8.528;2023-07-31T03:46:23;19.00;78.50
4578;DHT22;2301;47.354;8.528;2023-07-31T03:48:50;19.00;78.60
4578;DHT22;2301;47.354;8.528;2023-07-31T03:51:17;19.00;78.70
4578;DHT22;2301;47.354;8.528;2023-07-31T03:53:45;19.00;78.80
4578;DHT22;2301;47.354;8.528;2023-07-31T03:56:12;19.00;78.70
4578;DHT22;2301;47.354;8.528;2023-07-31T03:58:38;19.00;79.00
4578;DHT22;2301;47.354;8.528;2023-07-31T04:01:05;19.00;78.90
4578;DHT22;2301;47.354;8.528;2023-07-31T04:03:34;18.90;78.70
4578;DHT22;2301;47.354;8.528;2023-07-31T04:06:00;18.90;78.80
4578;DHT22;2301;47.354;8.528;2023-07-31T04:08:28;18.90;78.60
4578;DHT22;2301;47.354;8.528;2023-07-31T04:10:55;18.90;78.80
4578;DHT22;2301;47.354;8.528;2023-07-31T04:13:22;18.90;78.70
4578;DHT22;2301;47.354;8.528;2023-07-31T04:15:49;18.90;78.60
4578;DHT22;2301;47.354;8.528;2023-07-31T04:18:16;18.90;78.90
4578;DHT22;2301;47.354;8.528;2023-07-31T04:20:44;18.90;79.10
4578;DHT22;2301;47.354;8.528;2023-07-31T04:23:11;18.90;79.10
4578;DHT22;2301;47.354;8.528;2023-07-31T04:25:38;18.90;79.10
4578;DHT22;2301;47.354;8.528;2023-07-31T04:28:05;18.90;79.20
4578;DHT22;2301;47.354;8.528;2023-07-31T04:30:33;18.90;79.30
4578;DHT22;2301;47.354;8.528;2023-07-31T04:33:00;18.90;79.40
4578;DHT22;2301;47.354;8.528;2023-07-31T04:35:27;18.90;79.40
4578;DHT22;2301;47.354;8.528;2023-07-31T04:37:55;18.90;79.50
4578;DHT22;2301;47.354;8.528;2023-07-31T04:40:22;19.00;79.70
4578;DHT22;2301;47.354;8.528;2023-07-31T04:42:49;19.00;79.80
4578;DHT22;2301;47.354;8.528;2023-07-31T04:45:16;19.00;79.90
4578;DHT22;2301;47.354;8.528;2023-07-31T04:47:43;19.00;79.80
4578;DHT22;2301;47.354;8.528;2023-07-31T04:50:10;19.00;79.80
4578;DHT22;2301;47.354;8.528;2023-07-31T04:52:37;19.00;79.70
4578;DHT22;2301;47.354;8.528;2023-07-31T04:55:05;19.00;79.90
4578;DHT22;2301;47.354;8.528;2023-07-31T04:57:32;19.00;80.00
4578;DHT22;2301;47.354;8.528;2023-07-31T04:59:59;19.10;80.40
4578;DHT22;2301;47.354;8.528;2023-07-31T05:02:26;19.10;80.30
4578;DHT22;2301;47.354;8.528;2023-07-31T05:04:53;19.10;80.20
4578;DHT22;2301;47.354;8.528;2023-07-31T05:07:20;19.10;80.30
4578;DHT22;2301;47.354;8.528;2023-07-31T05:09:47;19.10;80.10
4578;DHT22;2301;47.354;8.528;2023-07-31T05:12:15;19.10;80.00
4578;DHT22;2301;47.354;8.528;2023-07-31T05:14:42;19.10;80.10
4578;DHT22;2301;47.354;8.528;2023-07-31T05:17:09;19.10;80.20
4578;DHT22;2301;47.354;8.528;2023-07-31T05:19:36;19.20;80.00
4578;DHT22;2301;47.354;8.528;2023-07-31T05:22:03;19.20;79.90
4578;DHT22;2301;47.354;8.528;2023-07-31T05:24:30;19.20;80.20
4578;DHT22;2301;47.354;8.528;2023-07-31T05:26:57;19.20;80.00
4578;DHT22;2301;47.354;8.528;2023-07-31T05:29:25;19.20;79.90
4578;DHT22;2301;47.354;8.528;2023-07-31T05:31:52;19.30;80.20
4578;DHT22;2301;47.354;8.528;2023-07-31T05:34:19;19.30;80.00
4578;DHT22;2301;47.354;8.528;2023-07-31T05:36:46;19.40;80.20
4578;DHT22;2301;47.354;8.528;2023-07-31T05:39:13;19.40;80.30
4578;DHT22;2301;47.354;8.528;2023-07-31T05:41:39;19.40;80.30
4578;DHT22;2301;47.354;8.528;2023-07-31T05:44:06;19.50;80.40
4578;DHT22;2301;47.354;8.528;2023-07-31T05:46:35;19.50;79.90
4578;DHT22;2301;47.354;8.528;2023-07-31T05:49:02;19.50;79.20
4578;DHT22;2301;47.354;8.528;2023-07-31T05:51:30;19.50;78.60
4578;DHT22;2301;47.354;8.528;2023-07-31T05:53:57;19.50;78.30
4578;DHT22;2301;47.354;8.528;2023-07-31T05:56:24;19.50;78.40
4578;DHT22;2301;47.354;8.528;2023-07-31T05:58:52;19.50;78.40
4578;DHT22;2301;47.354;8.528;2023-07-31T06:01:19;19.50;77.70
4578;DHT22;2301;47.354;8.528;2023-07-31T06:03:48;19.50;76.80
4578;DHT22;2301;47.354;8.528;2023-07-31T06:06:15;19.40;76.10
4578;DHT22;2301;47.354;8.528;2023-07-31T06:08:42;19.40;76.50
4578;DHT22;2301;47.354;8.528;2023-07-31T06:11:09;19.40;76.20
4578;DHT22;2301;47.354;8.528;2023-07-31T06:13:36;19.40;76.10
4578;DHT22;2301;47.354;8.528;2023-07-31T06:16:03;19.40;76.30
4578;DHT22;2301;47.354;8.528;2023-07-31T06:18:31;19.40;76.00
4578;DHT22;2301;47.354;8.528;2023-07-31T06:21:00;19.40;74.90
4578;DHT22;2301;47.354;8.528;2023-07-31T06:23:27;19.40;73.20
4578;DHT22;2301;47.354;8.528;2023-07-31T06:25:54;19.40;72.20
4578;DHT22;2301;47.354;8.528;2023-07-31T06:28:20;19.40;71.60
4578;DHT22;2301;47.354;8.528;2023-07-31T06:30:47;19.40;71.20
4578;DHT22;2301;47.354;8.528;2023-07-31T06:33:14;19.40;71.00
4578;DHT22;2301;47.354;8.528;2023-07-31T06:35:41;19.40;70.20
4578;DHT22;2301;47.354;8.528;2023-07-31T06:38:09;19.40;70.40
4578;DHT22;2301;47.354;8.528;2023-07-31T06:40:36;19.40;70.30
4578;DHT22;2301;47.354;8.528;2023-07-31T06:43:04;19.50;70.70
4578;DHT22;2301;47.354;8.528;2023-07-31T06:45:33;19.50;71.30
4578;DHT22;2301;47.354;8.528;2023-07-31T06:48:01;19.90;71.10
4578;DHT22;2301;47.354;8.528;2023-07-31T06:50:29;19.90;70.80
4578;DHT22;2301;47.354;8.528;2023-07-31T06:52:56;19.90;70.70
4578;DHT22;2301;47.354;8.528;2023-07-31T06:55:25;19.90;71.70
4578;DHT22;2301;47.354;8.528;2023-07-31T06:57:54;20.00;71.30
4578;DHT22;2301;47.354;8.528;2023-07-31T07:00:22;20.00;70.10
4578;DHT22;2301;47.354;8.528;2023-07-31T07:02:49;20.00;69.50
4578;DHT22;2301;47.354;8.528;2023-07-31T07:05:17;20.10;68.50
4578;DHT22;2301;47.354;8.528;2023-07-31T07:07:44;20.10;67.80
4578;DHT22;2301;47.354;8.528;2023-07-31T07:10:11;20.20;68.30
4578;DHT22;2301;47.354;8.528;2023-07-31T07:12:39;20.20;67.90
4578;DHT22;2301;47.354;8.528;2023-07-31T07:15:07;20.30;67.40
4578;DHT22;2301;47.354;8.528;2023-07-31T07:17:34;20.40;67.50
4578;DHT22;2301;47.354;8.528;2023-07-31T07:20:01;20.40;67.20
4578;DHT22;2301;47.354;8.528;2023-07-31T07:22:29;20.50;67.10
4578;DHT22;2301;47.354;8.528;2023-07-31T07:24:56;20.60;67.60
4578;DHT22;2301;47.354;8.528;2023-07-31T07:27:23;20.70;66.50
4578;DHT22;2301;47.354;8.528;2023-07-31T07:29:51;20.90;65.80
4578;DHT22;2301;47.354;8.528;2023-07-31T07:32:20;21.00;66.50
4578;DHT22;2301;47.354;8.528;2023-07-31T07:34:48;21.10;66.70
4578;DHT22;2301;47.354;8.528;2023-07-31T07:37:15;21.20;66.30
4578;DHT22;2301;47.354;8.528;2023-07-31T07:39:42;21.40;65.50
4578;DHT22;2301;47.354;8.528;2023-07-31T07:42:09;21.50;65.00
4578;DHT22;2301;47.354;8.528;2023-07-31T07:44:36;21.50;64.60
4578;DHT22;2301;47.354;8.528;2023-07-31T07:47:04;21.60;64.90
4578;DHT22;2301;47.354;8.528;2023-07-31T07:49:33;21.70;65.60
4578;DHT22;2301;47.354;8.528;2023-07-31T07:52:00;21.90;66.00
4578;DHT22;2301;47.354;8.528;2023-07-31T07:54:27;22.00;66.50
4578;DHT22;2301;47.354;8.528;2023-07-31T07:56:54;22.10;66.80
4578;DHT22;2301;47.354;8.528;2023-07-31T07:59:20;22.40;64.70
4578;DHT22;2301;47.354;8.528;2023-07-31T08:01:48;22.50;62.90
4578;DHT22;2301;47.354;8.528;2023-07-31T08:04:16;22.60;62.10
4578;DHT22;2301;47.354;8.528;2023-07-31T08:06:43;22.80;63.10
4578;DHT22;2301;47.354;8.528;2023-07-31T08:09:10;23.00;63.50
4578;DHT22;2301;47.354;8.528;2023-07-31T08:11:37;23.20;62.10
4578;DHT22;2301;47.354;8.528;2023-07-31T08:14:04;23.40;62.70
4578;DHT22;2301;47.354;8.528;2023-07-31T08:16:31;23.60;62.80
4578;DHT22;2301;47.354;8.528;2023-07-31T08:18:58;23.70;62.60
4578;DHT22;2301;47.354;8.528;2023-07-31T08:21:26;23.80;62.90
4578;DHT22;2301;47.354;8.528;2023-07-31T08:23:53;23.90;62.60
4578;DHT22;2301;47.354;8.528;2023-07-31T08:26:20;24.00;62.50
4578;DHT22;2301;47.354;8.528;2023-07-31T08:28:47;24.20;61.20
4578;DHT22;2301;47.354;8.528;2023-07-31T08:31:14;24.30;60.60
4578;DHT22;2301;47.354;8.528;2023-07-31T08:33:41;24.40;59.50
4578;DHT22;2301;47.354;8.528;2023-07-31T08:36:08;24.40;58.90
4578;DHT22;2301;47.354;8.528;2023-07-31T08:38:36;24.40;58.80
4578;DHT22;2301;47.354;8.528;2023-07-31T08:41:03;24.40;59.70
4578;DHT22;2301;47.354;8.528;2023-07-31T08:43:31;24.40;60.00
4578;DHT22;2301;47.354;8.528;2023-07-31T08:45:59;24.50;59.90
4578;DHT22;2301;47.354;8.528;2023-07-31T08:48:26;24.70;58.80
4578;DHT22;2301;47.354;8.528;2023-07-31T08:50:54;24.70;58.00
4578;DHT22;2301;47.354;8.528;2023-07-31T08:53:21;24.70;58.00
4578;DHT22;2301;47.354;8.528;2023-07-31T08:55:52;24.90;57.30
4578;DHT22;2301;47.354;8.528;2023-07-31T08:58:19;25.10;56.80
4578;DHT22;2301;47.354;8.528;2023-07-31T09:00:47;25.20;57.20
4578;DHT22;2301;47.354;8.528;2023-07-31T09:03:14;25.20;57.30
4578;DHT22;2301;47.354;8.528;2023-07-31T09:05:43;25.20;57.50
4578;DHT22;2301;47.354;8.528;2023-07-31T09:08:10;25.10;57.80
4578;DHT22;2301;47.354;8.528;2023-07-31T09:10:41;25.10;56.50
4578;DHT22;2301;47.354;8.528;2023-07-31T09:13:09;25.10;56.40
4578;DHT22;2301;47.354;8.528;2023-07-31T09:15:36;25.00;56.90
4578;DHT22;2301;47.354;8.528;2023-07-31T09:18:05;25.00;56.20
4578;DHT22;2301;47.354;8.528;2023-07-31T09:20:32;25.00;56.90
4578;DHT22;2301;47.354;8.528;2023-07-31T09:23:05;25.00;56.60
4578;DHT22;2301;47.354;8.528;2023-07-31T09:25:34;24.90;56.30
4578;DHT22;2301;47.354;8.528;2023-07-31T09:28:02;24.90;55.80
4578;DHT22;2301;47.354;8.528;2023-07-31T09:30:30;25.00;56.30
4578;DHT22;2301;47.354;8.528;2023-07-31T09:33:02;25.30;56.70
4578;DHT22;2301;47.354;8.528;2023-07-31T09:35:32;25.70;56.60
4578;DHT22;2301;47.354;8.528;2023-07-31T09:38:00;26.00;56.00
4578;DHT22;2301;47.354;8.528;2023-07-31T09:40:29;26.10;55.80
4578;DHT22;2301;47.354;8.528;2023-07-31T09:42:57;26.20;54.90
4578;DHT22;2301;47.354;8.528;2023-07-31T09:45:24;26.10;54.80
4578;DHT22;2301;47.354;8.528;2023-07-31T09:47:53;26.00;54.60
4578;DHT22;2301;47.354;8.528;2023-07-31T09:50:21;25.80;54.50
4578;DHT22;2301;47.354;8.528;2023-07-31T09:52:49;25.60;54.80
4578;DHT22;2301;47.354;8.528;2023-07-31T09:55:16;25.60;55.20
4578;DHT22;2301;47.354;8.528;2023-07-31T09:57:45;25.40;55.70
4578;DHT22;2301;47.354;8.528;2023-07-31T10:00:14;25.30;55.80
4578;DHT22;2301;47.354;8.528;2023-07-31T10:02:41;25.20;55.60
4578;DHT22;2301;47.354;8.528;2023-07-31T10:05:13;25.10;55.60
4578;DHT22;2301;47.354;8.528;2023-07-31T10:07:43;25.10;55.70
4578;DHT22;2301;47.354;8.528;2023-07-31T10:10:11;25.10;55.80
4578;DHT22;2301;47.354;8.528;2023-07-31T10:12:38;25.10;55.80
4578;DHT22;2301;47.354;8.528;2023-07-31T10:15:06;25.00;55.70
4578;DHT22;2301;47.354;8.528;2023-07-31T10:17:35;25.00;56.10
4578;DHT22;2301;47.354;8.528;2023-07-31T10:20:03;25.00;56.50
4578;DHT22;2301;47.354;8.528;2023-07-31T10:22:33;25.20;56.70
4578;DHT22;2301;47.354;8.528;2023-07-31T10:25:00;25.40;56.60
4578;DHT22;2301;47.354;8.528;2023-07-31T10:27:28;26.00;56.20
4578;DHT22;2301;47.354;8.528;2023-07-31T10:29:56;26.40;56.70
4578;DHT22;2301;47.354;8.528;2023-07-31T10:32:25;26.70;55.30
4578;DHT22;2301;47.354;8.528;2023-07-31T10:34:52;27.00;52.70
4578;DHT22;2301;47.354;8.528;2023-07-31T10:37:23;27.00;52.80
4578;DHT22;2301;47.354;8.528;2023-07-31T10:39:59;26.90;52.80
4578;DHT22;2301;47.354;8.528;2023-07-31T10:42:32;26.90;52.50
4578;DHT22;2301;47.354;8.528;2023-07-31T10:45:00;26.90;52.20
4578;DHT22;2301;47.354;8.528;2023-07-31T10:47:28;26.70;52.00
4578;DHT22;2301;47.354;8.528;2023-07-31T10:52:55;26.70;51.40
4578;DHT22;2301;47.354;8.528;2023-07-31T10:55:30;26.80;52.20
4578;DHT22;2301;47.354;8.528;2023-07-31T10:58:00;27.10;51.60
4578;DHT22;2301;47.354;8.528;2023-07-31T11:00:31;27.60;50.80
4578;DHT22;2301;47.354;8.528;2023-07-31T11:03:03;28.20;50.00
4578;DHT22;2301;47.354;8.528;2023-07-31T11:05:48;28.80;49.40
4578;DHT22;2301;47.354;8.528;2023-07-31T11:08:18;29.40;48.00
4578;DHT22;2301;47.354;8.528;2023-07-31T11:13:39;29.90;47.00
4578;DHT22;2301;47.354;8.528;2023-07-31T11:16:06;30.00;45.60
4578;DHT22;2301;47.354;8.528;2023-07-31T11:18:33;30.20;45.20
4578;DHT22;2301;47.354;8.528;2023-07-31T11:21:00;30.30;44.80
4578;DHT22;2301;47.354;8.528;2023-07-31T11:23:27;30.10;44.80
4578;DHT22;2301;47.354;8.528;2023-07-31T11:25:59;30.00;44.40
4578;DHT22;2301;47.354;8.528;2023-07-31T11:31:04;29.90;44.00
4578;DHT22;2301;47.354;8.528;2023-07-31T11:33:35;29.80;44.30
4578;DHT22;2301;47.354;8.528;2023-07-31T11:36:02;29.80;45.10
4578;DHT22;2301;47.354;8.528;2023-07-31T11:38:32;29.80;45.10
4578;DHT22;2301;47.354;8.528;2023-07-31T11:41:01;29.70;44.50
4578;DHT22;2301;47.354;8.528;2023-07-31T11:43:29;29.50;43.10
4578;DHT22;2301;47.354;8.528;2023-07-31T11:45:57;29.50;44.00
4578;DHT22;2301;47.354;8.528;2023-07-31T11:48:27;29.50;44.30
4578;DHT22;2301;47.354;8.528;2023-07-31T11:50:57;29.40;44.10
4578;DHT22;2301;47.354;8.528;2023-07-31T11:53:42;29.20;43.80
4578;DHT22;2301;47.354;8.528;2023-07-31T11:56:13;29.20;44.50
4578;DHT22;2301;47.354;8.528;2023-07-31T11:58:41;29.20;44.60
4578;DHT22;2301;47.354;8.528;2023-07-31T12:01:09;29.30;45.10
4578;DHT22;2301;47.354;8.528;2023-07-31T12:03:37;29.40;45.20
4578;DHT22;2301;47.354;8.528;2023-07-31T12:06:04;29.30;43.80
4578;DHT22;2301;47.354;8.528;2023-07-31T12:08:31;29.30;44.40
4578;DHT22;2301;47.354;8.528;2023-07-31T12:11:03;29.30;44.80
4578;DHT22;2301;47.354;8.528;2023-07-31T12:13:31;29.30;44.50
4578;DHT22;2301;47.354;8.528;2023-07-31T12:16:00;29.40;44.90
4578;DHT22;2301;47.354;8.528;2023-07-31T12:18:30;29.40;44.00
4578;DHT22;2301;47.354;8.528;2023-07-31T12:21:02;29.40;43.80
4578;DHT22;2301;47.354;8.528;2023-07-31T12:23:31;29.40;43.80
4578;DHT22;2301;47.354;8.528;2023-07-31T12:26:02;29.30;42.60
4578;DHT22;2301;47.354;8.528;2023-07-31T12:28:29;29.30;43.10
4578;DHT22;2301;47.354;8.528;2023-07-31T12:30:57;29.40;43.90
4578;DHT22;2301;47.354;8.528;2023-07-31T12:33:30;29.40;43.10
4578;DHT22;2301;47.354;8.528;2023-07-31T12:36:00;29.40;42.60
4578;DHT22;2301;47.354;8.528;2023-07-31T12:38:29;29.40;42.40
4578;DHT22;2301;47.354;8.528;2023-07-31T12:40:56;29.40;42.20
4578;DHT22;2301;47.354;8.528;2023-07-31T12:43:24;29.40;41.90
4578;DHT22;2301;47.354;8.528;2023-07-31T12:45:56;29.40;41.80
4578;DHT22;2301;47.354;8.528;2023-07-31T12:48:23;29.40;41.80
4578;DHT22;2301;47.354;8.528;2023-07-31T12:50:52;29.20;41.40
4578;DHT22;2301;47.354;8.528;2023-07-31T12:53:19;29.20;42.30
4578;DHT22;2301;47.354;8.528;2023-07-31T12:55:56;29.10;42.40
4578;DHT22;2301;47.354;8.528;2023-07-31T12:58:23;29.10;42.00
4578;DHT22;2301;47.354;8.528;2023-07-31T13:00:52;29.20;42.40
4578;DHT22;2301;47.354;8.528;2023-07-31T13:03:28;29.20;42.20
4578;DHT22;2301;47.354;8.528;2023-07-31T13:06:20;29.30;42.20
4578;DHT22;2301;47.354;8.528;2023-07-31T13:08:48;29.30;42.40
4578;DHT22;2301;47.354;8.528;2023-07-31T13:11:44;29.20;42.50
4578;DHT22;2301;47.354;8.528;2023-07-31T13:14:11;29.30;42.10
4578;DHT22;2301;47.354;8.528;2023-07-31T13:19:10;29.30;42.30
4578;DHT22;2301;47.354;8.528;2023-07-31T13:21:37;29.30;42.70
4578;DHT22;2301;47.354;8.528;2023-07-31T13:24:05;29.40;42.80
4578;DHT22;2301;47.354;8.528;2023-07-31T13:26:32;29.40;41.70
4578;DHT22;2301;47.354;8.528;2023-07-31T13:29:01;29.40;42.30
4578;DHT22;2301;47.354;8.528;2023-07-31T13:31:28;29.50;42.50
4578;DHT22;2301;47.354;8.528;2023-07-31T13:33:55;29.50;42.10
4578;DHT22;2301;47.354;8.528;2023-07-31T13:36:22;29.40;41.30
4578;DHT22;2301;47.354;8.528;2023-07-31T13:38:50;29.30;41.50
4578;DHT22;2301;47.354;8.528;2023-07-31T13:41:17;29.20;41.10
4578;DHT22;2301;47.354;8.528;2023-07-31T13:43:44;29.00;40.80
4578;DHT22;2301;47.354;8.528;2023-07-31T13:46:16;28.90;41.80
4578;DHT22;2301;47.354;8.528;2023-07-31T13:48:43;28.90;41.80
4578;DHT22;2301;47.354;8.528;2023-07-31T13:51:10;28.70;42.20
4578;DHT22;2301;47.354;8.528;2023-07-31T13:53:37;28.70;42.90
4578;DHT22;2301;47.354;8.528;2023-07-31T13:56:04;28.70;43.80
4578;DHT22;2301;47.354;8.528;2023-07-31T13:58:32;28.80;43.10
4578;DHT22;2301;47.354;8.528;2023-07-31T14:00:59;28.80;42.70
4578;DHT22;2301;47.354;8.528;2023-07-31T14:03:28;28.70;43.20
4578;DHT22;2301;47.354;8.528;2023-07-31T14:05:55;28.80;42.90
4578;DHT22;2301;47.354;8.528;2023-07-31T14:08:22;28.70;42.90
4578;DHT22;2301;47.354;8.528;2023-07-31T14:10:49;28.70;43.30
4578;DHT22;2301;47.354;8.528;2023-07-31T14:13:19;28.70;43.10
4578;DHT22;2301;47.354;8.528;2023-07-31T14:15:46;28.60;43.40
4578;DHT22;2301;47.354;8.528;2023-07-31T14:18:13;28.40;43.50
4578;DHT22;2301;47.354;8.528;2023-07-31T14:20:44;28.40;43.80
4578;DHT22;2301;47.354;8.528;2023-07-31T14:23:11;28.40;43.70
4578;DHT22;2301;47.354;8.528;2023-07-31T14:25:38;28.30;44.20
4578;DHT22;2301;47.354;8.528;2023-07-31T14:28:05;28.20;45.20
4578;DHT22;2301;47.354;8.528;2023-07-31T14:30:32;28.20;44.50
4578;DHT22;2301;47.354;8.528;2023-07-31T14:33:04;28.20;44.10
4578;DHT22;2301;47.354;8.528;2023-07-31T14:35:32;28.20;44.40
4578;DHT22;2301;47.354;8.528;2023-07-31T14:38:00;28.10;44.70
4578;DHT22;2301;47.354;8.528;2023-07-31T14:40:28;28.10;45.50
4578;DHT22;2301;47.354;8.528;2023-07-31T14:42:55;28.10;43.80
4578;DHT22;2301;47.354;8.528;2023-07-31T14:45:21;28.10;44.20
4578;DHT22;2301;47.354;8.528;2023-07-31T14:47:49;28.10;44.60
4578;DHT22;2301;47.354;8.528;2023-07-31T14:50:16;28.10;44.30
4578;DHT22;2301;47.354;8.528;2023-07-31T14:52:43;28.10;43.90
4578;DHT22;2301;47.354;8.528;2023-07-31T14:55:13;28.10;42.70
4578;DHT22;2301;47.354;8.528;2023-07-31T14:57:40;28.10;44.60
4578;DHT22;2301;47.354;8.528;2023-07-31T15:00:08;28.10;45.20
4578;DHT22;2301;47.354;8.528;2023-07-31T15:02:36;28.10;44.60
4578;DHT22;2301;47.354;8.528;2023-07-31T15:05:06;28.10;45.10
4578;DHT22;2301;47.354;8.528;2023-07-31T15:07:33;28.20;45.40
4578;DHT22;2301;47.354;8.528;2023-07-31T15:10:00;28.10;46.00
4578;DHT22;2301;47.354;8.528;2023-07-31T15:12:29;28.10;45.50
4578;DHT22;2301;47.354;8.528;2023-07-31T15:14:56;28.20;45.70
4578;DHT22;2301;47.354;8.528;2023-07-31T15:17:23;28.10;45.60
4578;DHT22;2301;47.354;8.528;2023-07-31T15:19:50;28.10;46.60
4578;DHT22;2301;47.354;8.528;2023-07-31T15:22:17;28.10;47.00
4578;DHT22;2301;47.354;8.528;2023-07-31T15:24:44;28.10;47.40
4578;DHT22;2301;47.354;8.528;2023-07-31T15:27:11;28.10;47.50
4578;DHT22;2301;47.354;8.528;2023-07-31T15:29:39;28.10;47.80
4578;DHT22;2301;47.354;8.528;2023-07-31T15:32:06;28.10;48.00
4578;DHT22;2301;47.354;8.528;2023-07-31T15:34:33;28.10;47.50
4578;DHT22;2301;47.354;8.528;2023-07-31T15:37:00;28.10;47.30
4578;DHT22;2301;47.354;8.528;2023-07-31T15:39:27;28.00;48.10
4578;DHT22;2301;47.354;8.528;2023-07-31T15:41:54;28.00;48.10
4578;DHT22;2301;47.354;8.528;2023-07-31T15:44:21;28.00;48.10
4578;DHT22;2301;47.354;8.528;2023-07-31T15:50:00;28.00;47.30
4578;DHT22;2301;47.354;8.528;2023-07-31T15:52:27;27.90;46.60
4578;DHT22;2301;47.354;8.528;2023-07-31T15:54:54;27.80;46.70
4578;DHT22;2301;47.354;8.528;2023-07-31T15:57:22;27.70;47.30
4578;DHT22;2301;47.354;8.528;2023-07-31T15:59:49;27.70;47.70
4578;DHT22;2301;47.354;8.528;2023-07-31T16:02:15;27.70;48.80
4578;DHT22;2301;47.354;8.528;2023-07-31T16:04:42;27.70;50.00
4578;DHT22;2301;47.354;8.528;2023-07-31T16:07:11;27.70;49.40
4578;DHT22;2301;47.354;8.528;2023-07-31T16:09:38;27.60;48.60
4578;DHT22;2301;47.354;8.528;2023-07-31T16:12:08;27.60;48.60
4578;DHT22;2301;47.354;8.528;2023-07-31T16:14:36;27.60;48.70
4578;DHT22;2301;47.354;8.528;2023-07-31T16:17:10;27.60;49.40
4578;DHT22;2301;47.354;8.528;2023-07-31T16:19:38;27.60;49.00
4578;DHT22;2301;47.354;8.528;2023-07-31T16:22:06;27.50;49.70
4578;DHT22;2301;47.354;8.528;2023-07-31T16:24:51;27.50;49.60